METAR Data
IDs: Format: Raw Decoded Include TAF

Data at: 0656 UTC 01 Aug 2021

EBAW 010650Z 22005KT 5000 BR BKN003 15/13 Q1009 NOSIG